Time,TemperatureF,DewpointF,PressureIn,WindDirection,WindDirectionDegrees,WindSpeedMPH,WindSpeedGustMPH,Humidity,HourlyPrecipIn,Conditions,Clouds,dailyrainin,SoftwareType,DateUTC
2013-06-29 00:09:00,82.9,62.4,29.83,NE,49,0.0,0.0,50,0.00,,---,0.00,VWS V14.00,2013-06-29 05:09:00,
2013-06-29 00:19:00,82.2,62.3,29.83,NE,46,0.0,0.0,51,0.00,,---,0.00,VWS V14.00,2013-06-29 05:19:00,
2013-06-29 00:29:00,81.9,62.5,29.86,NE,49,0.0,0.0,52,0.00,,---,0.00,VWS V14.00,2013-06-29 05:29:00,
2013-06-29 00:39:00,81.5,62.7,29.83,NE,49,0.0,0.0,53,0.00,,---,0.00,VWS V14.00,2013-06-29 05:39:00,
2013-06-29 00:49:00,81.1,62.9,29.83,NE,48,0.0,0.0,54,0.00,,---,0.00,VWS V14.00,2013-06-29 05:49:00,
2013-06-29 00:59:00,80.6,63.0,29.83,NE,49,0.0,0.0,55,0.00,,---,0.00,VWS V14.00,2013-06-29 05:59:00,
2013-06-29 01:09:00,80.2,63.1,29.83,NE,48,0.0,0.0,56,0.00,,---,0.00,VWS V14.00,2013-06-29 06:09:00,
2013-06-29 01:19:00,79.9,63.3,29.83,NE,49,0.0,0.0,57,0.00,,---,0.00,VWS V14.00,2013-06-29 06:19:00,
2013-06-29 01:29:00,79.2,63.6,29.83,NE,50,0.0,0.0,59,0.00,,---,0.00,VWS V14.00,2013-06-29 06:29:00,
2013-06-29 01:39:00,79.0,63.9,29.83,NE,46,0.0,0.0,60,0.00,,---,0.00,VWS V14.00,2013-06-29 06:39:00,
2013-06-29 01:49:00,78.6,64.1,29.83,NE,49,0.0,0.0,61,0.00,,---,0.00,VWS V14.00,2013-06-29 06:49:00,
2013-06-29 01:59:00,78.1,63.5,29.83,NE,49,0.0,0.0,61,0.00,,---,0.00,VWS V14.00,2013-06-29 06:59:00,
2013-06-29 02:09:00,77.5,63.5,29.83,NE,49,0.0,0.0,62,0.00,,---,0.00,VWS V14.00,2013-06-29 07:09:00,
2013-06-29 02:19:00,77.2,64.1,29.83,NE,49,0.0,0.0,64,0.00,,---,0.00,VWS V14.00,2013-06-29 07:19:00,
2013-06-29 02:29:00,77.0,63.9,29.83,NE,49,0.0,0.0,64,0.00,,---,0.00,VWS V14.00,2013-06-29 07:29:00,
2013-06-29 02:39:00,76.8,64.2,29.83,NE,47,0.0,0.0,65,0.00,,---,0.00,VWS V14.00,2013-06-29 07:39:00,
2013-06-29 02:49:00,76.6,64.0,29.83,NE,48,0.0,0.0,65,0.00,,---,0.00,VWS V14.00,2013-06-29 07:49:00,
2013-06-29 02:59:00,76.5,64.3,29.83,NE,49,0.0,0.0,66,0.00,,---,0.00,VWS V14.00,2013-06-29 07:59:00,
2013-06-29 03:09:00,76.3,64.1,29.83,NE,47,0.0,0.0,66,0.00,,---,0.00,VWS V14.00,2013-06-29 08:09:00,
2013-06-29 03:19:00,76.1,64.4,29.83,NE,48,0.0,0.0,67,0.00,,---,0.00,VWS V14.00,2013-06-29 08:19:00,
2013-06-29 03:29:00,76.1,64.8,29.83,NE,48,0.0,0.0,68,0.00,,---,0.00,VWS V14.00,2013-06-29 08:29:00,
2013-06-29 03:39:00,75.9,64.6,29.83,NE,49,0.0,0.0,68,0.00,,---,0.00,VWS V14.00,2013-06-29 08:39:00,
2013-06-29 03:49:00,75.7,64.4,29.83,NE,48,0.0,0.0,68,0.00,,---,0.00,VWS V14.00,2013-06-29 08:49:00,
2013-06-29 03:59:00,75.6,64.7,29.83,NE,47,0.0,0.0,69,0.00,,---,0.00,VWS V14.00,2013-06-29 08:59:00,
2013-06-29 04:09:00,75.4,64.5,29.83,NE,49,0.0,0.0,69,0.00,,---,0.00,VWS V14.00,2013-06-29 09:09:00,
2013-06-29 04:19:00,75.2,64.8,29.83,NE,48,0.0,0.0,70,0.00,,---,0.00,VWS V14.00,2013-06-29 09:19:00,
2013-06-29 04:29:00,74.8,64.4,29.83,NE,48,0.0,0.0,70,0.00,,---,0.00,VWS V14.00,2013-06-29 09:29:00,
2013-06-29 04:39:00,74.8,64.8,29.83,NE,49,0.0,0.0,71,0.00,,---,0.00,VWS V14.00,2013-06-29 09:39:00,
2013-06-29 04:49:00,74.7,64.6,29.83,NE,48,0.0,0.0,71,0.00,,---,0.00,VWS V14.00,2013-06-29 09:49:00,
2013-06-29 04:59:00,74.7,65.0,29.83,NE,49,0.0,0.0,72,0.00,,---,0.00,VWS V14.00,2013-06-29 09:59:00,
2013-06-29 05:09:00,74.7,65.0,29.83,NE,47,0.0,0.0,72,0.00,,---,0.00,VWS V14.00,2013-06-29 10:09:00,
2013-06-29 05:19:00,74.5,65.3,29.83,NE,49,0.0,0.0,73,0.00,,---,0.00,VWS V14.00,2013-06-29 10:19:00,
2013-06-29 05:29:00,74.3,65.1,29.86,NE,48,0.0,0.0,73,0.00,,---,0.00,VWS V14.00,2013-06-29 10:29:00,
2013-06-29 05:39:00,74.1,65.3,29.86,NE,49,0.0,0.0,74,0.00,,---,0.00,VWS V14.00,2013-06-29 10:39:00,
2013-06-29 05:49:00,74.1,65.7,29.86,NE,49,0.0,0.0,75,0.00,,---,0.00,VWS V14.00,2013-06-29 10:49:00,
2013-06-29 05:59:00,74.1,66.1,29.86,NE,47,0.0,0.0,76,0.00,,---,0.00,VWS V14.00,2013-06-29 10:59:00,
2013-06-29 06:09:00,73.9,65.9,29.86,NE,48,0.0,0.0,76,0.00,,---,0.00,VWS V14.00,2013-06-29 11:09:00,
2013-06-29 06:19:00,73.9,66.3,29.86,NE,49,0.0,0.0,77,0.00,,---,0.00,VWS V14.00,2013-06-29 11:19:00,
2013-06-29 06:29:00,73.9,66.3,29.86,NE,47,0.0,0.0,77,0.00,,---,0.00,VWS V14.00,2013-06-29 11:29:00,
2013-06-29 06:39:00,73.8,66.5,29.86,NE,49,0.0,0.0,78,0.00,,---,0.00,VWS V14.00,2013-06-29 11:39:00,
2013-06-29 06:49:00,73.9,66.7,29.86,NE,51,0.0,0.0,78,0.00,,---,0.00,VWS V14.00,2013-06-29 11:49:00,
2013-06-29 06:59:00,74.1,66.8,29.86,NE,47,0.0,0.0,78,0.00,,---,0.00,VWS V14.00,2013-06-29 11:59:00,
2013-06-29 07:09:00,74.3,67.0,29.86,NE,49,0.0,0.0,78,0.00,,---,0.00,VWS V14.00,2013-06-29 12:09:00,
2013-06-29 07:19:00,75.0,67.7,29.86,NE,50,0.0,0.0,78,0.00,,---,0.00,VWS V14.00,2013-06-29 12:19:00,
2013-06-29 07:30:00,75.6,68.2,29.86,NE,49,0.0,0.0,78,0.00,,---,0.00,VWS V14.00,2013-06-29 12:30:00,
2013-06-29 07:40:00,76.1,68.4,29.86,NE,51,0.0,0.0,77,0.00,,---,0.00,VWS V14.00,2013-06-29 12:40:00,
2013-06-29 07:50:00,76.8,69.1,29.86,NE,47,0.0,0.0,77,0.00,,---,0.00,VWS V14.00,2013-06-29 12:50:00,
2013-06-29 08:00:00,77.9,69.7,29.86,NE,47,0.0,0.0,76,0.00,,---,0.00,VWS V14.00,2013-06-29 13:00:00,
2013-06-29 08:10:00,79.0,70.0,29.89,NE,50,0.0,0.0,74,0.00,,---,0.00,VWS V14.00,2013-06-29 13:10:00,
2013-06-29 08:20:00,80.1,70.2,29.89,NE,48,0.0,0.0,72,0.00,,---,0.00,VWS V14.00,2013-06-29 13:20:00,
2013-06-29 08:30:00,81.0,70.3,29.86,NE,48,0.0,0.0,70,0.00,,---,0.00,VWS V14.00,2013-06-29 13:30:00,
2013-06-29 08:40:00,81.3,69.8,29.89,NE,45,0.0,0.0,68,0.00,,---,0.00,VWS V14.00,2013-06-29 13:40:00,
2013-06-29 08:50:00,82.0,70.0,29.89,NE,50,0.0,0.0,67,0.00,,---,0.00,VWS V14.00,2013-06-29 13:50:00,
2013-06-29 09:00:00,82.9,70.4,29.86,NE,48,0.0,0.0,66,0.00,,---,0.00,VWS V14.00,2013-06-29 14:00:00,
2013-06-29 09:10:00,83.8,70.4,29.86,NE,45,0.0,0.0,64,0.00,,---,0.00,VWS V14.00,2013-06-29 14:10:00,
2013-06-29 09:20:00,84.6,70.6,29.86,NE,50,0.0,0.0,63,0.00,,---,0.00,VWS V14.00,2013-06-29 14:20:00,
2013-06-29 09:30:00,85.1,70.2,29.86,NE,46,0.0,0.0,61,0.00,,---,0.00,VWS V14.00,2013-06-29 14:30:00,
2013-06-29 09:40:00,85.8,70.3,29.86,NE,47,0.0,0.0,60,0.00,,---,0.00,VWS V14.00,2013-06-29 14:40:00,
2013-06-29 09:50:00,86.5,70.5,29.86,NE,38,0.0,3.6,59,0.00,,---,0.00,VWS V14.00,2013-06-29 14:50:00,
2013-06-29 10:00:00,87.3,70.7,29.89,NE,36,0.0,3.6,58,0.00,,---,0.00,VWS V14.00,2013-06-29 15:00:00,
2013-06-29 10:10:00,88.2,70.5,29.89,NE,56,0.0,4.5,56,0.00,,---,0.00,VWS V14.00,2013-06-29 15:10:00,
2013-06-29 10:20:00,88.7,70.5,29.89,NW,326,2.7,4.0,55,0.00,,---,0.00,VWS V14.00,2013-06-29 15:20:00,
2013-06-29 10:30:00,89.2,69.9,29.89,SE,129,3.6,4.0,53,0.00,,---,0.00,VWS V14.00,2013-06-29 15:30:00,
2013-06-29 10:40:00,89.8,69.3,29.89,ESE,116,0.0,4.0,51,0.00,,---,0.00,VWS V14.00,2013-06-29 15:40:00,
2013-06-29 10:50:00,90.7,69.5,29.89,NE,47,0.0,4.5,50,0.00,,---,0.00,VWS V14.00,2013-06-29 15:50:00,
2013-06-29 11:00:00,91.4,68.3,29.89,NW,313,2.7,4.0,47,0.00,,---,0.00,VWS V14.00,2013-06-29 16:00:00,
2013-06-29 11:10:00,91.6,67.2,29.89,NE,53,3.1,4.5,45,0.00,,---,0.00,VWS V14.00,2013-06-29 16:10:00,
2013-06-29 11:20:00,91.9,66.3,29.89,NNW,335,3.6,5.8,43,0.00,,---,0.00,VWS V14.00,2013-06-29 16:20:00,
2013-06-29 11:30:00,91.8,65.4,29.89,NE,43,0.0,4.9,42,0.00,,---,0.00,VWS V14.00,2013-06-29 16:30:00,
2013-06-29 11:40:00,91.8,63.3,29.89,North,351,0.0,4.9,39,0.00,,---,0.00,VWS V14.00,2013-06-29 16:40:00,
2013-06-29 11:50:00,91.8,62.6,29.89,NNW,344,0.0,4.9,38,0.00,,---,0.00,VWS V14.00,2013-06-29 16:50:00,
2013-06-29 12:00:00,93.4,63.2,29.89,NNW,333,4.0,4.0,37,0.00,,---,0.00,VWS V14.00,2013-06-29 17:00:00,
2013-06-29 12:10:00,94.1,62.3,29.89,NNE,31,0.0,4.9,35,0.00,,---,0.00,VWS V14.00,2013-06-29 17:10:00,
2013-06-29 12:20:00,94.6,61.1,29.89,NNW,338,4.5,6.9,33,0.00,,---,0.00,VWS V14.00,2013-06-29 17:20:00,
2013-06-29 12:30:00,95.0,61.4,29.89,ENE,78,4.9,6.3,33,0.00,,---,0.00,VWS V14.00,2013-06-29 17:30:00,
2013-06-29 12:40:00,95.9,62.2,29.86,WSW,245,3.1,5.8,33,0.00,,---,0.00,VWS V14.00,2013-06-29 17:40:00,
2013-06-29 12:50:00,95.0,60.5,29.86,SSE,151,0.0,4.9,32,0.00,,---,0.00,VWS V14.00,2013-06-29 17:50:00,
2013-06-29 13:00:00,94.3,59.0,29.89,NE,48,0.0,4.0,31,0.00,,---,0.00,VWS V14.00,2013-06-29 18:00:00,
2013-06-29 13:10:00,93.9,58.7,29.86,East,91,0.0,6.3,31,0.00,,---,0.00,VWS V14.00,2013-06-29 18:10:00,
2013-06-29 13:20:00,93.4,58.2,29.86,East,99,0.0,0.0,31,0.00,,---,0.00,VWS V14.00,2013-06-29 18:20:00,
2013-06-29 13:30:00,93.9,58.7,29.86,ESE,123,0.0,4.9,31,0.00,,---,0.00,VWS V14.00,2013-06-29 18:30:00,
2013-06-29 13:40:00,95.4,59.0,29.86,ESE,118,4.5,6.3,30,0.00,,---,0.00,VWS V14.00,2013-06-29 18:40:00,
2013-06-29 13:50:00,95.7,58.4,29.86,ESE,105,0.0,6.9,29,0.00,,---,0.00,VWS V14.00,2013-06-29 18:50:00,
2013-06-29 14:00:00,94.3,58.1,29.86,ESE,112,0.0,4.0,30,0.00,,---,0.00,VWS V14.00,2013-06-29 19:00:00,
2013-06-29 14:10:00,91.2,56.4,29.86,ESE,113,0.0,3.1,31,0.00,,---,0.00,VWS V14.00,2013-06-29 19:10:00,
2013-06-29 14:20:00,92.8,57.8,29.86,ESE,116,2.7,3.1,31,0.00,,---,0.00,VWS V14.00,2013-06-29 19:20:00,
2013-06-29 14:30:00,93.6,57.5,29.86,NE,47,0.0,4.9,30,0.00,,---,0.00,VWS V14.00,2013-06-29 19:30:00,
2013-06-29 14:40:00,94.8,58.6,29.86,NNW,328,4.9,5.4,30,0.00,,---,0.00,VWS V14.00,2013-06-29 19:40:00,
2013-06-29 14:50:00,95.2,57.9,29.86,NNE,32,0.0,5.8,29,0.00,,---,0.00,VWS V14.00,2013-06-29 19:50:00,
2013-06-29 15:00:00,96.3,57.9,29.83,NE,55,2.7,5.4,28,0.00,,---,0.00,VWS V14.00,2013-06-29 20:00:00,
2013-06-29 15:10:00,96.6,57.2,29.83,NNW,347,2.7,6.7,27,0.00,,---,0.00,VWS V14.00,2013-06-29 20:10:00,
2013-06-29 15:20:00,97.0,57.5,29.83,NNW,343,0.0,5.4,27,0.00,,---,0.00,VWS V14.00,2013-06-29 20:20:00,
2013-06-29 15:30:00,96.4,57.0,29.83,NE,49,0.0,5.4,27,0.00,,---,0.00,VWS V14.00,2013-06-29 20:30:00,
2013-06-29 15:40:00,97.2,57.6,29.83,NE,42,2.7,5.4,27,0.00,,---,0.00,VWS V14.00,2013-06-29 20:40:00,
2013-06-29 15:50:00,97.2,57.6,29.83,SE,125,3.6,4.9,27,0.00,,---,0.00,VWS V14.00,2013-06-29 20:50:00,
2013-06-29 16:00:00,97.9,57.2,29.83,NE,52,0.0,5.8,26,0.00,,---,0.00,VWS V14.00,2013-06-29 21:00:00,
2013-06-29 16:10:00,97.9,57.2,29.83,ESE,116,3.1,4.9,26,0.00,,---,0.00,VWS V14.00,2013-06-29 21:10:00,
2013-06-29 16:20:00,98.1,57.4,29.83,East,91,2.7,4.9,26,0.00,,---,0.00,VWS V14.00,2013-06-29 21:20:00,
2013-06-29 16:30:00,98.2,57.5,29.80,SE,127,4.5,5.4,26,0.00,,---,0.00,VWS V14.00,2013-06-29 21:30:00,
2013-06-29 16:40:00,98.6,57.8,29.80,NE,54,3.1,4.9,26,0.00,,---,0.00,VWS V14.00,2013-06-29 21:40:00,
2013-06-29 16:50:00,97.9,56.1,29.80,South,184,2.7,4.5,25,0.00,,---,0.00,VWS V14.00,2013-06-29 21:50:00,
2013-06-29 17:00:00,97.3,56.8,29.80,East,96,3.1,6.7,26,0.00,,---,0.00,VWS V14.00,2013-06-29 22:00:00,
2013-06-29 17:10:00,97.9,56.1,29.80,ENE,57,4.5,5.4,25,0.00,,---,0.00,VWS V14.00,2013-06-29 22:10:00,
2013-06-29 17:20:00,97.9,56.1,29.80,NE,51,0.0,6.3,25,0.00,,---,0.00,VWS V14.00,2013-06-29 22:20:00,
2013-06-29 17:30:00,97.2,56.6,29.80,WNW,301,3.1,5.8,26,0.00,,---,0.00,VWS V14.00,2013-06-29 22:30:00,
2013-06-29 17:40:00,96.4,56.0,29.80,North,5,0.0,5.4,26,0.00,,---,0.00,VWS V14.00,2013-06-29 22:40:00,
2013-06-29 17:50:00,95.9,55.5,29.80,NE,51,0.0,6.9,26,0.00,,---,0.00,VWS V14.00,2013-06-29 22:50:00,
2013-06-29 18:00:00,95.7,55.4,29.80,WNW,285,4.0,4.9,26,0.00,,---,0.00,VWS V14.00,2013-06-29 23:00:00,
2013-06-29 18:10:00,95.4,55.1,29.78,ESE,108,0.0,4.9,26,0.00,,---,0.00,VWS V14.00,2013-06-29 23:10:00,
2013-06-29 18:20:00,95.4,55.1,29.78,ESE,109,0.0,4.5,26,0.00,,---,0.00,VWS V14.00,2013-06-29 23:20:00,
2013-06-29 18:30:00,95.0,54.8,29.78,NE,39,2.7,4.9,26,0.00,,---,0.00,VWS V14.00,2013-06-29 23:30:00,
2013-06-29 18:40:00,94.6,54.5,29.78,ESE,112,3.1,4.5,26,0.00,,---,0.00,VWS V14.00,2013-06-29 23:40:00,
2013-06-29 18:50:00,94.3,54.2,29.78,NNE,20,3.1,4.9,26,0.00,,---,0.00,VWS V14.00,2013-06-29 23:50:00,
2013-06-29 19:00:00,93.9,54.9,29.78,East,99,4.0,6.7,27,0.00,,---,0.00,VWS V14.00,2013-06-30 00:00:00,
2013-06-29 19:10:00,93.6,54.6,29.78,SSE,161,0.0,4.0,27,0.00,,---,0.00,VWS V14.00,2013-06-30 00:10:00,
2013-06-29 19:20:00,93.0,54.1,29.78,ENE,73,0.0,6.3,27,0.00,,---,0.00,VWS V14.00,2013-06-30 00:20:00,
2013-06-29 19:30:00,92.7,53.8,29.80,WNW,294,0.0,3.6,27,0.00,,---,0.00,VWS V14.00,2013-06-30 00:30:00,
2013-06-29 19:40:00,92.3,53.5,29.80,WSW,255,0.0,3.6,27,0.00,,---,0.00,VWS V14.00,2013-06-30 00:40:00,
2013-06-29 19:50:00,91.9,53.2,29.80,NNW,331,0.0,2.7,27,0.00,,---,0.00,VWS V14.00,2013-06-30 00:50:00,
2013-06-29 20:10:00,90.7,53.1,29.80,North,1,0.0,0.0,28,0.00,,---,0.00,VWS V14.00,2013-06-30 01:10:00,
2013-06-29 20:20:00,90.3,52.8,29.80,NE,45,2.7,2.7,28,0.00,,---,0.00,VWS V14.00,2013-06-30 01:20:00,
2013-06-29 20:30:00,89.8,53.3,29.80,East,82,0.0,3.1,29,0.00,,---,0.00,VWS V14.00,2013-06-30 01:30:00,
2013-06-29 20:40:00,89.2,52.9,29.80,ESE,108,0.0,3.6,29,0.00,,---,0.00,VWS V14.00,2013-06-30 01:40:00,
2013-06-29 20:50:00,88.7,53.3,29.80,ESE,105,0.0,0.0,30,0.00,,---,0.00,VWS V14.00,2013-06-30 01:50:00,
2013-06-29 21:00:00,88.2,52.8,29.80,ESE,105,0.0,0.0,30,0.00,,---,0.00,VWS V14.00,2013-06-30 02:00:00,
2013-06-29 21:10:00,87.6,53.3,29.80,ESE,106,0.0,0.0,31,0.00,,---,0.00,VWS V14.00,2013-06-30 02:10:00,
2013-06-29 21:20:00,87.1,52.8,29.80,ESE,106,0.0,0.0,31,0.00,,---,0.00,VWS V14.00,2013-06-30 02:20:00,
2013-06-29 21:30:00,86.5,53.2,29.80,ESE,104,0.0,0.0,32,0.00,,---,0.00,VWS V14.00,2013-06-30 02:30:00,
2013-06-29 21:40:00,86.0,53.6,29.80,ESE,103,0.0,0.0,33,0.00,,---,0.00,VWS V14.00,2013-06-30 02:40:00,
2013-06-29 21:50:00,85.6,54.9,29.80,ESE,104,0.0,0.0,35,0.00,,---,0.00,VWS V14.00,2013-06-30 02:50:00,
2013-06-29 22:00:00,85.3,55.3,29.80,ESE,106,0.0,0.0,36,0.00,,---,0.00,VWS V14.00,2013-06-30 03:00:00,
2013-06-29 22:10:00,85.1,55.9,29.83,ESE,105,0.0,0.0,37,0.00,,---,0.00,VWS V14.00,2013-06-30 03:10:00,
2013-06-29 22:20:00,84.9,56.5,29.83,ESE,106,0.0,0.0,38,0.00,,---,0.00,VWS V14.00,2013-06-30 03:20:00,
2013-06-29 22:30:00,84.7,57.1,29.83,ESE,105,0.0,0.0,39,0.00,,---,0.00,VWS V14.00,2013-06-30 03:30:00,
2013-06-29 22:40:00,84.6,56.9,29.83,ESE,106,0.0,0.0,39,0.00,,---,0.00,VWS V14.00,2013-06-30 03:40:00,
2013-06-29 22:50:00,84.4,57.5,29.83,ESE,105,0.0,0.0,40,0.00,,---,0.00,VWS V14.00,2013-06-30 03:50:00,
2013-06-29 23:00:00,84.0,57.1,29.83,ESE,105,0.0,0.0,40,0.00,,---,0.00,VWS V14.00,2013-06-30 04:00:00,
2013-06-29 23:10:00,83.5,56.6,29.83,ESE,103,0.0,0.0,40,0.00,,---,0.00,VWS V14.00,2013-06-30 04:10:00,
2013-06-29 23:20:00,82.8,57.3,29.83,ESE,104,0.0,0.0,42,0.00,,---,0.00,VWS V14.00,2013-06-30 04:20:00,
2013-06-29 23:30:00,82.0,57.4,29.83,ESE,105,0.0,0.0,43,0.00,,---,0.00,VWS V14.00,2013-06-30 04:30:00,
2013-06-29 23:40:00,81.3,57.3,29.83,ESE,104,0.0,0.0,44,0.00,,---,0.00,VWS V14.00,2013-06-30 04:40:00,
2013-06-29 23:50:00,80.4,57.8,29.83,ESE,106,0.0,0.0,46,0.00,,---,0.00,VWS V14.00,2013-06-30 04:50:00,